createdAt,value
2023-11-15T00:00:19.558Z,72.33
2023-11-15T00:02:49.566Z,72.40
2023-11-15T00:05:17.300Z,72.18
2023-11-15T00:07:45.421Z,72.27
2023-11-15T00:10:14.872Z,72.14
2023-11-15T00:12:43.874Z,72.27
2023-11-15T00:15:11.373Z,72.38
2023-11-15T00:17:38.974Z,72.34
2023-11-15T00:20:07.279Z,72.38
2023-11-15T00:22:35.099Z,72.47
2023-11-15T00:25:04.921Z,72.31
2023-11-15T00:27:32.977Z,72.18
2023-11-15T00:30:01.266Z,72.20
2023-11-15T00:32:29.169Z,72.22
2023-11-15T00:34:57.005Z,72.28
2023-11-15T00:37:24.849Z,72.35
2023-11-15T00:39:53.398Z,72.44
2023-11-15T00:42:21.021Z,72.50
2023-11-15T00:44:48.600Z,72.49
2023-11-15T00:47:16.149Z,72.65
2023-11-15T00:49:47.048Z,72.81
2023-11-15T00:52:16.834Z,72.88
2023-11-15T00:54:44.379Z,72.95
2023-11-15T00:57:12.106Z,72.89
2023-11-15T00:59:45.721Z,72.84
2023-11-15T01:02:15.296Z,72.82
2023-11-15T01:04:47.820Z,72.82
2023-11-15T01:07:15.404Z,72.95
2023-11-15T01:09:44.087Z,72.80
2023-11-15T01:12:14.233Z,72.95
2023-11-15T01:14:44.708Z,72.84
2023-11-15T01:17:12.318Z,72.82
2023-11-15T01:19:39.853Z,72.66
2023-11-15T01:22:10.460Z,72.57
2023-11-15T01:24:42.719Z,72.58
2023-11-15T01:27:10.298Z,72.43
2023-11-15T01:29:38.209Z,72.49
2023-11-15T01:32:05.833Z,72.56
2023-11-15T01:34:33.359Z,72.64
2023-11-15T01:37:04.101Z,72.36
2023-11-15T01:39:31.618Z,72.15
2023-11-15T01:41:59.448Z,71.96
2023-11-15T01:44:27.058Z,71.75
2023-11-15T01:46:54.710Z,71.63
2023-11-15T01:49:22.962Z,71.60
2023-11-15T01:51:54.891Z,71.55
2023-11-15T01:54:22.941Z,71.56
2023-11-15T01:56:50.467Z,71.51
2023-11-15T01:59:21.136Z,71.46
2023-11-15T02:01:49.093Z,71.56
2023-11-15T02:04:16.607Z,71.58
2023-11-15T02:06:44.149Z,71.49
2023-11-15T02:09:15.216Z,71.43
2023-11-15T02:11:45.340Z,71.36
2023-11-15T02:14:15.758Z,71.32
2023-11-15T02:16:46.004Z,71.22
2023-11-15T02:19:17.230Z,71.08
2023-11-15T02:21:45.815Z,71.09
2023-11-15T02:24:13.334Z,71.05
2023-11-15T02:26:40.921Z,71.08
2023-11-15T02:29:09.007Z,71.13
2023-11-15T02:31:36.774Z,70.98
2023-11-15T02:34:04.468Z,70.94
2023-11-15T02:36:32.727Z,70.84
2023-11-15T02:39:00.667Z,70.59
2023-11-15T02:41:28.245Z,70.38
2023-11-15T02:43:57.101Z,70.29
2023-11-15T02:46:30.163Z,70.09
2023-11-15T02:48:57.616Z,69.97
2023-11-15T02:51:25.151Z,69.92
2023-11-15T02:53:53.463Z,69.83
2023-11-15T02:56:21.364Z,69.77
2023-11-15T02:58:51.257Z,69.77
2023-11-15T03:01:18.995Z,69.68
2023-11-15T03:03:49.087Z,69.67
2023-11-15T03:06:16.809Z,69.66
2023-11-15T03:08:44.418Z,69.66
2023-11-15T03:11:12.165Z,69.63
2023-11-15T03:13:39.775Z,69.61
2023-11-15T03:16:08.044Z,69.69
2023-11-15T03:18:35.698Z,69.71
2023-11-15T03:21:04.266Z,69.61
2023-11-15T03:23:31.897Z,69.53
2023-11-15T03:26:00.256Z,69.51
2023-11-15T03:28:27.719Z,69.63
2023-11-15T03:30:55.615Z,69.56
2023-11-15T03:33:23.333Z,69.57
2023-11-15T03:35:51.171Z,69.63
2023-11-15T03:38:18.818Z,69.81
2023-11-15T03:40:46.287Z,69.93
2023-11-15T03:43:13.785Z,69.96
2023-11-15T03:45:41.332Z,69.85
2023-11-15T03:48:08.979Z,69.84
2023-11-15T03:50:36.649Z,69.90
2023-11-15T03:53:08.967Z,69.93
2023-11-15T03:55:38.844Z,69.99
2023-11-15T03:58:06.360Z,69.98
2023-11-15T04:00:33.963Z,69.97
2023-11-15T04:03:04.028Z,69.93
2023-11-15T04:05:33.076Z,69.75
2023-11-15T04:08:00.646Z,69.76
2023-11-15T04:10:30.650Z,69.90
2023-11-15T04:12:58.290Z,69.93
2023-11-15T04:15:28.061Z,70.02
2023-11-15T04:25:35.635Z,69.78
2023-11-15T04:28:05.896Z,69.82
2023-11-15T04:30:33.892Z,69.93
2023-11-15T04:33:01.439Z,70.02
2023-11-15T04:35:29.015Z,70.12
2023-11-15T04:37:58.631Z,70.26
2023-11-15T04:40:30.563Z,70.35
2023-11-15T04:43:00.525Z,70.19
2023-11-15T04:45:28.085Z,70.38
2023-11-15T04:47:57.856Z,70.38
2023-11-15T04:50:26.806Z,70.36
2023-11-15T04:52:57.785Z,70.24
2023-11-15T04:55:26.155Z,70.27
2023-11-15T04:57:53.642Z,70.41
2023-11-15T05:00:21.280Z,70.43
2023-11-15T05:02:48.936Z,70.47
2023-11-15T05:05:16.537Z,70.45
2023-11-15T05:07:44.134Z,70.60
2023-11-15T05:10:11.756Z,70.49
2023-11-15T05:12:39.253Z,70.57
2023-11-15T05:15:07.744Z,70.47
2023-11-15T05:17:35.388Z,70.49
2023-11-15T05:20:03.039Z,70.47
2023-11-15T05:22:30.490Z,70.49
2023-11-15T05:25:00.479Z,70.37
2023-11-15T05:27:28.180Z,70.50
2023-11-15T05:29:55.612Z,70.47
2023-11-15T05:32:23.269Z,70.58
2023-11-15T05:34:50.824Z,70.57
2023-11-15T05:37:18.963Z,70.71
2023-11-15T05:39:46.468Z,70.65
2023-11-15T05:42:13.926Z,70.65
2023-11-15T05:44:41.420Z,70.84
2023-11-15T05:47:09.176Z,70.81
2023-11-15T05:49:39.042Z,70.96
2023-11-15T05:52:06.634Z,71.10
2023-11-15T05:54:34.303Z,71.17
2023-11-15T05:57:02.389Z,70.95
2023-11-15T05:59:29.898Z,71.04
2023-11-15T06:01:57.501Z,70.84
2023-11-15T06:04:25.169Z,70.79
2023-11-15T06:06:52.730Z,70.78
2023-11-15T06:09:20.241Z,70.91
2023-11-15T06:11:47.885Z,71.02
2023-11-15T06:14:16.942Z,71.05
2023-11-15T06:16:44.592Z,71.13
2023-11-15T06:19:12.091Z,70.95
2023-11-15T06:21:43.555Z,71.18
2023-11-15T06:24:11.377Z,71.41
2023-11-15T06:26:39.116Z,71.38
2023-11-15T06:29:06.744Z,71.51
2023-11-15T06:31:37.496Z,71.54
2023-11-15T06:34:10.129Z,71.67
2023-11-15T06:36:38.299Z,71.57
2023-11-15T06:39:07.317Z,71.56
2023-11-15T06:41:40.372Z,71.72
2023-11-15T06:44:08.649Z,71.79
2023-11-15T06:46:39.737Z,71.64
2023-11-15T06:49:08.313Z,71.60
2023-11-15T06:51:35.828Z,71.55
2023-11-15T06:54:04.015Z,71.50
2023-11-15T06:56:31.637Z,71.46
2023-11-15T06:58:59.184Z,71.39
2023-11-15T07:01:26.825Z,71.32
2023-11-15T07:03:55.677Z,71.63
2023-11-15T07:06:23.398Z,71.67
2023-11-15T07:08:51.118Z,71.68
2023-11-15T07:11:18.603Z,71.37
2023-11-15T07:13:46.082Z,71.49
2023-11-15T07:16:13.672Z,71.60
2023-11-15T07:18:41.322Z,71.54
2023-11-15T07:21:08.922Z,71.71
2023-11-15T07:23:37.062Z,71.59
2023-11-15T07:26:05.471Z,71.45
2023-11-15T07:28:33.033Z,71.34
2023-11-15T07:31:00.791Z,71.33
2023-11-15T07:33:28.592Z,71.24
2023-11-15T07:35:57.631Z,71.07
2023-11-15T07:38:25.901Z,71.11
2023-11-15T07:40:53.651Z,70.94
2023-11-15T07:43:21.376Z,70.92
2023-11-15T07:45:53.239Z,70.75
2023-11-15T07:48:21.112Z,70.63
2023-11-15T07:50:48.692Z,70.86
2023-11-15T07:53:16.358Z,71.07
2023-11-15T07:55:43.958Z,71.09
2023-11-15T07:58:12.463Z,71.18
2023-11-15T08:00:39.922Z,71.35
2023-11-15T08:03:09.424Z,71.40
2023-11-15T08:05:37.711Z,71.35
2023-11-15T08:08:07.673Z,71.43
2023-11-15T08:10:38.832Z,71.42
2023-11-15T08:13:06.581Z,71.72
2023-11-15T08:15:34.065Z,71.77
2023-11-15T08:18:01.867Z,71.70
2023-11-15T08:20:29.372Z,71.44
2023-11-15T08:22:58.435Z,71.35
2023-11-15T08:25:26.583Z,71.49
2023-11-15T08:27:54.101Z,71.72
2023-11-15T08:30:22.575Z,71.78
2023-11-15T08:32:50.331Z,71.70
2023-11-15T08:35:18.546Z,71.76
2023-11-15T08:37:46.244Z,71.75
2023-11-15T08:40:23.202Z,72.01
2023-11-15T08:42:58.580Z,72.52
2023-11-15T08:45:27.084Z,72.91
2023-11-15T08:47:59.219Z,73.01
2023-11-15T08:50:30.654Z,72.95
2023-11-15T08:52:58.102Z,73.23
2023-11-15T08:55:25.655Z,73.50
2023-11-15T08:57:53.206Z,73.93
2023-11-15T09:00:21.328Z,73.96
2023-11-15T09:02:50.097Z,74.34
2023-11-15T09:05:21.146Z,74.40
2023-11-15T09:07:48.999Z,74.44
2023-11-15T09:10:17.620Z,74.57
2023-11-15T09:12:48.143Z,74.64
2023-11-15T09:15:16.211Z,74.68
2023-11-15T09:17:48.071Z,74.66
2023-11-15T09:20:22.938Z,74.61
2023-11-15T09:22:50.951Z,74.59
2023-11-15T09:25:31.856Z,74.57
2023-11-15T09:28:00.815Z,74.69
2023-11-15T09:30:28.484Z,74.56
2023-11-15T09:32:56.395Z,74.46
2023-11-15T09:35:30.508Z,74.57
2023-11-15T09:37:58.678Z,74.52
2023-11-15T09:41:59.168Z,74.28
2023-11-15T09:44:27.377Z,74.33
2023-11-15T09:46:59.233Z,74.45
2023-11-15T09:49:29.661Z,74.81
2023-11-15T09:52:00.464Z,75.22
2023-11-15T09:54:30.337Z,75.46
2023-11-15T09:57:00.003Z,75.70
2023-11-15T09:59:30.823Z,75.92
2023-11-15T10:01:58.938Z,75.82
2023-11-15T10:04:29.476Z,76.03
2023-11-15T10:07:03.879Z,76.33
2023-11-15T10:09:44.882Z,76.75
2023-11-15T10:12:12.463Z,76.80
2023-11-15T10:14:54.318Z,76.97
2023-11-15T10:17:39.814Z,77.13
2023-11-15T10:20:37.346Z,77.24
2023-11-15T10:23:28.425Z,77.57
2023-11-15T10:25:57.238Z,77.65
2023-11-15T10:28:34.043Z,77.73
2023-11-15T10:31:06.724Z,77.71
2023-11-15T10:33:39.040Z,77.78
2023-11-15T10:36:18.013Z,78.00
2023-11-15T10:38:55.511Z,78.06
2023-11-15T10:41:24.157Z,78.00
2023-11-15T10:43:52.746Z,78.22
2023-11-15T10:46:32.500Z,78.42
2023-11-15T10:49:01.780Z,78.38
2023-11-15T10:51:36.985Z,78.11
2023-11-15T10:54:04.576Z,77.78
2023-11-15T10:56:32.537Z,77.88
2023-11-15T10:59:01.377Z,77.59
2023-11-15T11:01:33.585Z,77.31
2023-11-15T11:04:06.253Z,77.42
2023-11-15T11:06:53.870Z,77.54
2023-11-15T11:09:47.073Z,77.56
2023-11-15T11:12:20.401Z,76.98
2023-11-15T11:14:50.539Z,76.76
2023-11-15T11:17:34.712Z,77.11
2023-11-15T11:20:03.725Z,77.19
2023-11-15T11:22:34.231Z,77.03
2023-11-15T11:25:08.400Z,77.14
2023-11-15T11:27:38.266Z,77.21
2023-11-15T11:30:16.068Z,77.22
2023-11-15T11:32:46.311Z,76.34
2023-11-15T11:35:15.258Z,75.99
2023-11-15T11:37:55.065Z,75.99
2023-11-15T11:40:26.708Z,75.66
2023-11-15T11:42:54.368Z,75.70
2023-11-15T11:45:24.630Z,75.75
2023-11-15T11:47:52.669Z,75.55
2023-11-15T11:50:21.519Z,74.82
2023-11-15T11:52:56.325Z,73.64
2023-11-15T11:55:24.721Z,73.17
2023-11-15T11:57:52.338Z,73.47
2023-11-15T12:00:22.724Z,73.81
2023-11-15T12:03:00.613Z,74.02
2023-11-15T12:05:33.349Z,74.32
2023-11-15T12:08:02.700Z,74.23
2023-11-15T12:10:30.482Z,74.19
2023-11-15T12:13:00.880Z,74.02
2023-11-15T12:15:28.682Z,73.70
2023-11-15T12:17:58.663Z,73.69
2023-11-15T12:20:27.249Z,73.71
2023-11-15T12:23:11.151Z,73.71
2023-11-15T12:25:54.583Z,73.71
2023-11-15T12:28:25.188Z,73.80
2023-11-15T12:30:55.408Z,73.65
2023-11-15T12:33:23.156Z,73.59
2023-11-15T12:35:52.847Z,73.44
2023-11-15T12:38:20.799Z,73.17
2023-11-15T12:40:48.917Z,73.09
2023-11-15T12:43:24.103Z,72.94
2023-11-15T12:45:53.229Z,73.07
2023-11-15T12:48:23.632Z,73.06
2023-11-15T12:51:00.316Z,73.54
2023-11-15T12:53:31.852Z,73.67
2023-11-15T12:56:00.051Z,73.82
2023-11-15T12:58:30.678Z,73.64
2023-11-15T13:00:59.259Z,73.30
2023-11-15T13:03:28.222Z,73.26
2023-11-15T13:06:08.815Z,73.44
2023-11-15T13:08:36.804Z,73.63
2023-11-15T13:11:04.659Z,73.53
2023-11-15T13:13:33.259Z,73.17
2023-11-15T13:16:00.865Z,73.07
2023-11-15T13:18:28.509Z,73.27
2023-11-15T13:20:59.363Z,73.58
2023-11-15T13:23:28.428Z,73.95
2023-11-15T13:25:55.947Z,74.12
2023-11-15T13:28:23.435Z,74.09
2023-11-15T13:30:51.079Z,74.15
2023-11-15T13:33:19.485Z,74.17
2023-11-15T13:35:47.702Z,74.23
2023-11-15T13:38:16.059Z,74.36
2023-11-15T13:40:46.035Z,74.45
2023-11-15T13:43:13.772Z,74.56
2023-11-15T13:45:43.466Z,74.68
2023-11-15T13:48:11.553Z,74.77
2023-11-15T13:50:40.452Z,74.89
2023-11-15T13:53:07.983Z,74.86
2023-11-15T13:55:35.488Z,74.75
2023-11-15T13:58:02.932Z,74.79
2023-11-15T14:00:34.932Z,74.89
2023-11-15T14:03:07.794Z,75.09
2023-11-15T14:05:35.535Z,75.16
2023-11-15T14:08:05.930Z,75.15
2023-11-15T14:10:33.526Z,75.04
2023-11-15T14:13:06.120Z,75.34
2023-11-15T14:15:34.428Z,75.67
2023-11-15T14:18:05.069Z,75.99
2023-11-15T14:20:32.842Z,76.26
2023-11-15T14:23:00.402Z,76.59
2023-11-15T14:25:33.294Z,76.73
2023-11-15T14:28:03.678Z,76.91
2023-11-15T14:30:31.329Z,77.21
2023-11-15T14:33:01.271Z,77.27
2023-11-15T14:35:29.766Z,77.31
2023-11-15T14:37:57.557Z,77.39
2023-11-15T14:40:25.879Z,77.71
2023-11-15T14:42:57.007Z,77.95
2023-11-15T14:45:26.852Z,78.01
2023-11-15T14:47:54.667Z,77.92
2023-11-15T14:50:23.982Z,77.99
2023-11-15T14:52:57.104Z,78.06
2023-11-15T14:55:29.398Z,78.03
2023-11-15T14:57:58.090Z,78.05
2023-11-15T15:00:26.906Z,77.86
2023-11-15T15:03:04.234Z,77.65
2023-11-15T15:05:31.959Z,77.59
2023-11-15T15:07:59.642Z,77.68
2023-11-15T15:10:29.028Z,77.76
2023-11-15T15:12:56.676Z,77.78
2023-11-15T15:15:24.751Z,77.53
2023-11-15T15:17:53.050Z,77.35
2023-11-15T15:20:24.533Z,77.32
2023-11-15T15:22:54.875Z,77.38
2023-11-15T15:25:23.077Z,77.27
2023-11-15T15:27:51.136Z,77.11
2023-11-15T15:30:19.477Z,76.88
2023-11-15T15:32:47.935Z,76.76
2023-11-15T15:35:16.276Z,76.67
2023-11-15T15:37:47.481Z,76.60
2023-11-15T15:40:18.109Z,76.58
2023-11-15T15:42:48.537Z,76.55
2023-11-15T15:45:16.604Z,76.47
2023-11-15T15:47:47.491Z,76.46
2023-11-15T15:50:15.440Z,76.50
2023-11-15T15:52:43.292Z,76.45
2023-11-15T15:55:12.000Z,76.59
2023-11-15T15:57:39.720Z,76.44
2023-11-15T16:00:08.239Z,76.46
2023-11-15T16:02:37.223Z,76.56
2023-11-15T16:05:05.892Z,76.62
2023-11-15T16:07:33.589Z,76.84
2023-11-15T16:10:07.400Z,76.92
2023-11-15T16:12:39.974Z,76.85
2023-11-15T16:15:08.434Z,77.06
2023-11-15T16:17:36.216Z,77.24
2023-11-15T16:20:04.836Z,77.56
2023-11-15T16:22:32.525Z,77.55
2023-11-15T16:25:00.006Z,77.40
2023-11-15T16:27:34.283Z,77.53
2023-11-15T16:30:11.022Z,77.63
2023-11-15T16:32:42.034Z,77.90
2023-11-15T16:35:13.947Z,77.76
2023-11-15T16:37:43.205Z,77.69
2023-11-15T16:40:12.724Z,77.60
2023-11-15T16:42:41.079Z,77.81
2023-11-15T16:45:09.907Z,77.81
2023-11-15T16:47:39.638Z,77.93
2023-11-15T16:50:08.418Z,77.87
2023-11-15T16:52:36.089Z,77.82
2023-11-15T16:55:05.424Z,77.85
2023-11-15T16:57:34.184Z,77.98
2023-11-15T17:00:01.891Z,78.22
2023-11-15T17:02:29.611Z,78.34
2023-11-15T17:04:58.454Z,78.42
2023-11-15T17:07:25.943Z,78.44
2023-11-15T17:09:53.640Z,78.48
2023-11-15T17:12:25.229Z,78.57
2023-11-15T17:14:53.157Z,78.65
2023-11-15T17:17:21.127Z,78.70
2023-11-15T17:19:49.703Z,78.75
2023-11-15T17:22:20.905Z,78.56
2023-11-15T17:24:49.066Z,78.68
2023-11-15T17:27:16.921Z,78.62
2023-11-15T17:29:49.869Z,78.77
2023-11-15T17:32:17.927Z,78.92
2023-11-15T17:34:50.103Z,78.87
2023-11-15T17:37:18.212Z,78.80
2023-11-15T17:39:45.861Z,78.74
2023-11-15T17:42:13.477Z,78.77
2023-11-15T17:44:42.021Z,78.91
2023-11-15T17:47:13.017Z,78.97
2023-11-15T17:49:40.573Z,79.02
2023-11-15T17:52:11.299Z,79.07
2023-11-15T17:54:39.209Z,78.99
2023-11-15T17:57:06.999Z,78.86
2023-11-15T17:59:35.010Z,78.89
2023-11-15T18:02:05.438Z,78.93
2023-11-15T18:04:32.943Z,78.98
2023-11-15T18:07:00.537Z,78.92
2023-11-15T18:09:29.366Z,78.87
2023-11-15T18:11:57.018Z,78.71
2023-11-15T18:14:24.630Z,78.75
2023-11-15T18:16:54.395Z,78.65
2023-11-15T18:19:22.992Z,78.62
2023-11-15T18:21:51.953Z,78.56
2023-11-15T18:24:19.545Z,78.53
2023-11-15T18:26:47.240Z,78.41
2023-11-15T18:29:14.768Z,78.45
2023-11-15T18:31:44.613Z,78.40
2023-11-15T18:34:12.548Z,78.40
2023-11-15T18:36:44.326Z,78.21
2023-11-15T18:39:16.516Z,77.95
2023-11-15T18:41:45.791Z,78.04
2023-11-15T18:44:17.176Z,78.03
2023-11-15T18:46:49.100Z,77.99
2023-11-15T18:49:18.564Z,77.81
2023-11-15T18:51:50.530Z,77.63
2023-11-15T18:54:18.159Z,77.50
2023-11-15T18:56:46.258Z,77.63
2023-11-15T18:59:14.935Z,77.71
2023-11-15T19:01:45.393Z,77.87
2023-11-15T19:04:13.384Z,77.87
2023-11-15T19:06:41.124Z,77.79
2023-11-15T19:09:12.291Z,77.71
2023-11-15T19:11:40.576Z,77.71
2023-11-15T19:14:09.467Z,77.85
2023-11-15T19:16:37.657Z,77.92
2023-11-15T19:19:06.092Z,77.80
2023-11-15T19:21:33.669Z,77.67
2023-11-15T19:24:01.629Z,77.65
2023-11-15T19:26:32.218Z,77.71
2023-11-15T19:28:59.738Z,77.78
2023-11-15T19:31:27.231Z,77.83
2023-11-15T19:33:55.287Z,77.77
2023-11-15T19:36:23.165Z,77.64
2023-11-15T19:38:50.733Z,77.63
2023-11-15T19:41:21.370Z,77.55
2023-11-15T19:43:49.329Z,77.31
2023-11-15T19:46:21.081Z,77.39
2023-11-15T19:48:49.478Z,77.25
2023-11-15T19:51:36.935Z,76.89
2023-11-15T19:54:08.629Z,76.56
2023-11-15T19:56:36.486Z,76.54
2023-11-15T19:59:05.174Z,76.57
2023-11-15T20:01:32.872Z,76.68
2023-11-15T20:04:04.620Z,76.76
2023-11-15T20:06:32.785Z,76.71
2023-11-15T20:09:00.471Z,76.68
2023-11-15T20:11:32.575Z,76.64
2023-11-15T20:14:01.154Z,76.57
2023-11-15T20:16:29.445Z,76.64
2023-11-15T20:18:57.481Z,76.70
2023-11-15T20:21:25.083Z,76.72
2023-11-15T20:23:54.434Z,76.58
2023-11-15T20:26:22.047Z,76.43
2023-11-15T20:28:49.644Z,76.44
2023-11-15T20:31:17.357Z,76.52
2023-11-15T20:33:44.901Z,76.39
2023-11-15T20:36:14.040Z,76.41
2023-11-15T20:38:42.496Z,76.26
2023-11-15T20:41:11.635Z,75.99
2023-11-15T20:43:39.094Z,75.75
2023-11-15T20:46:17.350Z,75.67
2023-11-15T20:48:47.441Z,75.60
2023-11-15T20:51:15.928Z,75.49
2023-11-15T20:53:43.509Z,75.21
2023-11-15T20:56:11.254Z,75.06
2023-11-15T20:58:38.739Z,74.86
2023-11-15T21:01:07.804Z,74.66
2023-11-15T21:03:35.512Z,74.41
2023-11-15T21:06:05.142Z,74.12
2023-11-15T21:08:33.559Z,73.76
2023-11-15T21:11:02.155Z,73.50
2023-11-15T21:13:32.319Z,73.13
2023-11-15T21:16:00.094Z,73.16
2023-11-15T21:18:27.671Z,73.16
2023-11-15T21:20:59.101Z,73.17
2023-11-15T21:23:30.261Z,72.98
2023-11-15T21:25:57.842Z,72.88
2023-11-15T21:28:25.706Z,72.52
2023-11-15T21:30:53.289Z,72.46
2023-11-15T21:33:21.005Z,72.41
2023-11-15T21:35:50.571Z,72.39
2023-11-15T21:38:19.173Z,72.25
2023-11-15T21:40:46.736Z,72.23
2023-11-15T21:43:14.808Z,72.23
2023-11-15T21:45:42.368Z,72.12
2023-11-15T21:48:10.298Z,72.16
2023-11-15T21:50:38.017Z,72.14
2023-11-15T21:53:05.758Z,72.38
2023-11-15T21:55:35.698Z,72.41
2023-11-15T21:59:45.181Z,72.90
2023-11-15T22:02:12.716Z,73.04
2023-11-15T22:04:41.476Z,73.18
2023-11-15T22:07:09.578Z,73.33
2023-11-15T22:09:37.102Z,73.62
2023-11-15T22:12:05.084Z,73.72
2023-11-15T22:14:32.966Z,73.76
2023-11-15T22:17:00.524Z,73.84
2023-11-15T22:19:30.397Z,73.73
2023-11-15T22:21:58.017Z,73.61
2023-11-15T22:24:25.574Z,73.58
2023-11-15T22:26:53.092Z,73.63
2023-11-15T22:29:20.586Z,73.49
2023-11-15T22:31:51.342Z,73.46
2023-11-15T22:34:20.574Z,73.47
2023-11-15T22:36:48.015Z,73.39
2023-11-15T22:39:15.985Z,73.32
2023-11-15T22:41:43.525Z,73.41
2023-11-15T22:44:11.105Z,73.45
2023-11-15T22:46:38.652Z,73.49
2023-11-15T22:49:06.118Z,73.40
2023-11-15T22:51:33.665Z,73.32
2023-11-15T22:54:01.287Z,73.24
2023-11-15T22:56:29.259Z,73.26
2023-11-15T22:58:56.759Z,73.19
2023-11-15T23:01:24.397Z,73.28
2023-11-15T23:03:53.247Z,73.29
2023-11-15T23:06:21.206Z,73.36
2023-11-15T23:08:51.653Z,73.34
2023-11-15T23:11:20.234Z,73.34
2023-11-15T23:13:49.247Z,73.21
2023-11-15T23:16:16.723Z,73.35
2023-11-15T23:18:45.133Z,73.34
2023-11-15T23:21:12.752Z,73.34
2023-11-15T23:23:40.288Z,73.46
2023-11-15T23:26:11.537Z,73.44
2023-11-15T23:28:39.045Z,73.18
2023-11-15T23:31:07.883Z,73.00
2023-11-15T23:33:35.651Z,72.98
2023-11-15T23:36:03.369Z,72.93
2023-11-15T23:38:30.913Z,72.98
2023-11-15T23:40:58.398Z,72.97
2023-11-15T23:43:29.915Z,72.90
2023-11-15T23:45:58.695Z,72.80
2023-11-15T23:48:26.198Z,72.53
2023-11-15T23:50:56.669Z,72.37
2023-11-15T23:53:24.233Z,72.32
2023-11-15T23:55:51.764Z,72.24
2023-11-15T23:58:20.571Z,72.07
